Port Aransas, Texas
Current Conditions -  °F | °C
As of 8:35 PM on Friday 21 Nov 2014 (Local Time) from KRAS Reporting Station
Overcast Overcast  
Wind Chill: 69°   Ceiling: 6500
Heat Index: 69°   Visibility: 7mi
Dew Point: 65°   Wind: 9mph
Humidity: 88%   Direction: 140°SE
Pressure: 30.05"   Gusts: NA
Location:  27.83°N, 97.06°W
Report Text: KRAS 220235Z AUTO 14008KT 7SM OVC065 21/19 A3005 RMK AO2 T02050185
Loading
Personal Weather Stations






























Interactive Weather Map New forecast layout! Learn more

10-Day Weather Forecast

Advertisements
Track Severe Weather on mobile